West Salem, IL (62476)

2:25 PM CST on February 27, 2017 (GMT -0600)
1.5 mile East of Albion | | Change Station

Elev 446 ft 38.39 °N, 88.02 °W | Updated 2 seconds ago

Overcast
Overcast
56.3 °F
Feels Like 56.3 °F
N
6.0
Wind Variable Wind from SE
Gusts 7.4 mph

Today
High -- | Low -- °F
--% Chance of Precip.
Yesterday
High -- | Low -- °F
Precip. -- in
Pressure 30.13 in
Visibility 10.0 miles
Clouds Mostly Cloudy 2500 ft
Overcast 4700 ft
Dew Point 36 °F
Humidity 46%
Rainfall 0.00 in
Snow Depth Not available.
6:26 AM 5:43 PM
New Moon, 2% visible
METAR KAJG 272015Z AUTO 18007KT 10SM BKN025 OVC047 12/06 A3013 RMK AO2 T01230062
Pressure 30.13 in
Visibility 10.0 miles
Clouds Mostly Cloudy 2500 ft
Overcast 4700 ft
Dew Point 36 °F
Humidity 46%
Rainfall 0.00 in
Snow Depth Not available.
6:26 AM 5:43 PM
New Moon, 2% visible
METAR KAJG 272015Z AUTO 18007KT 10SM BKN025 OVC047 12/06 A3013 RMK AO2 T01230062

Get Your Daily Forecast Email!

Thanks for signing up!

Be on the lookout for a verification email in your inbox.

You'll start receiving the daily forecast at 8 AM.

×

10-Day Weather Forecast

Almanac

Astronomy

Feb. 27, 2017 Rise Set
Actual Time
Civil Twilight
Nautical Twilight
Astronomical Twilight
Moon
Length of Visible Light
Length of Day
Tomorrow will be .
, % of the Moon is Illuminated

Today's Extremes

State Highs State Lows

Community

WunderPhotos

Upload Photos

1,962,540 photos uploaded!

WunderBlog® & News

Nearby

Air Quality

  Air Quality AQ Index Pollutant
Not available.

Snow Depth

Station Depth Elevation

Earthquake Activity

City Distance Mag. Time & Date
Minimum magnitude displayed is 2.5.

Coastal Water Temperatures

Place Temperature

Stations

Nearby Weather Stations

Station Location Temp. Windchill Dew Point Humidity Wind Precip. Elev Updated Type
                   

Watches & Warnings

There are currently no watches in effect.